This is the latest recevied weather packets stored in our database for station/object KC4MCQ-10. If no packets are shown the sender has not sent any weather packets the latest 10 day(s).
| Time | Temp. | Humidity | Pressure | Rain* | Wind** | Luminosity | Snow |
|---|---|---|---|---|---|---|---|
| 1788044332 | 27.78° C | 84% | 1017.8 hPa | 4.06 mm | 0.45 m/s, 130° | - | - |
| 1788043730 | 28.33° C | 83% | 1017.7 hPa | 4.06 mm | 0.45 m/s, 118° | - | - |
| 1788043129 | 28.33° C | 83% | 1017.5 hPa | 4.06 mm | 0.45 m/s, 101° | - | - |
| 1788042527 | 28.33° C | 83% | 1017.3 hPa | 4.06 mm | 0.45 m/s, 117° | - | - |
| 1788041927 | 28.33° C | 82% | 1017.1 hPa | 4.06 mm | 0.45 m/s, 84° | - | - |
| 1788041326 | 28.33° C | 82% | 1017.3 hPa | 4.06 mm | 1.34 m/s, 94° | - | - |
| 1788040726 | 28.33° C | 82% | 1017.3 hPa | 4.06 mm | 2.24 m/s, 136° | - | - |
| 1788040126 | 28.33° C | 84% | 1017.1 hPa | 4.06 mm | 0.89 m/s, 157° | - | - |
| 1788039521 | 28.89° C | 85% | 1016.7 hPa | 4.06 mm | 0.89 m/s, 98° | - | - |
| 1788038920 | 28.89° C | 87% | 1017 hPa | 4.06 mm | 0.45 m/s, 159° | - | - |
| 1788038319 | 27.78° C | 88% | 1017.2 hPa | 4.06 mm | 0.45 m/s, 143° | - | - |
| 1788037719 | 26.67° C | 86% | 1017.2 hPa | 4.06 mm | 0.89 m/s, 75° | - | - |
| 1788037118 | 26.67° C | 84% | 1017.4 hPa | 4.06 mm | 0.89 m/s, 87° | - | - |
| 1788036517 | 30° C | 73% | 1017.5 hPa | 0.76 mm | 1.79 m/s, 126° | - | - |
| 1788035912 | 33.33° C | 68% | 1017.4 hPa | 0 mm | 4.92 m/s, 157° | - | - |
| 1788035303 | 33.33° C | 69% | 1017.1 hPa | 0 mm | 1.79 m/s, 76° | - | - |
| 1788034698 | 32.78° C | 68% | 1017.3 hPa | 0 mm | 3.13 m/s, 88° | - | - |
| 1788032895 | 33.89° C | 60% | 1017.2 hPa | 0 mm | 4.02 m/s, 81° | - | - |
| 1788032292 | 33.89° C | 60% | 1017.3 hPa | 0 mm | 2.68 m/s, 55° | - | - |
| 1788031691 | 33.33° C | 62% | 1017.4 hPa | 0 mm | 1.79 m/s, 162° | - | - |
| 1788031091 | 32.78° C | 65% | 1017.6 hPa | 0 mm | 0.45 m/s, 89° | - | - |
| 1788030488 | 33.33° C | 66% | 1017.4 hPa | 0 mm | 1.79 m/s, 99° | - | - |
| 1788029885 | 33.89° C | 64% | 1017.6 hPa | 2.03 mm | 0.89 m/s, 126° | - | - |
| 1788029284 | 33.33° C | 64% | 1017.6 hPa | 2.03 mm | 0.45 m/s, 101° | - | - |
| 1788028684 | 33.33° C | 66% | 1017.8 hPa | 2.03 mm | 1.79 m/s, 161° | - | - |
* Rain latest 24 hours (hover to see other rain measurements)
** Current wind speed in m/s (hover to see current wind gust speed)